Glendive, MT (59330)

1:53 PM MDT on October 01, 2014 (GMT -0600)
Dawson Community | Change Station
CLOSE
Current Station
Airport
Location: Glendive,
Elevation: 2457 ft
Nearby Weather Stations

Elev 2457 ft 47.14 °N, 104.81 °W | Updated -2497 second ago

Overcast
Overcast
57 °F
Feels Like 57 °F
N
13
Wind Variable Wind from NNW

Today
High -- | Low -- °F
--% Chance of Precip.
Yesterday
High -- | Low -- °F
Precip. -- in
6:57 AM 6:38 PM
Waxing Crescent, 50% visible
Pressure 29.54 in
Visibility 10.0 miles
Clouds Mostly Cloudy 1100 ft
Overcast 6000 ft
Dew Point 54 °F
Humidity 88%
Rainfall 0.00 in
Snow Depth 0 in , 0 in , 0 in
UV 1 out of 12
Pollen 2.60 out of 12
Air Quality Not available.
Flu Activity Not available.
METAR KGDV 302035Z AUTO 33011KT 10SM BKN011 OVC060 14/12 A2954 RMK AO1

More Conditions Fewer Conditions

Pressure 29.54 in
Visibility 10.0 miles
Clouds Mostly Cloudy 1100 ft
Overcast 6000 ft
Dew Point 54 °F
Humidity 88%
Rainfall 0.00 in
Snow Depth 0 in , 0 in , 0 in
UV 1 out of 12
Pollen 2.60 out of 12
Air Quality Not available.
Flu Activity Not available.
METAR KGDV 302035Z AUTO 33011KT 10SM BKN011 OVC060 14/12 A2954 RMK AO1

More Conditions Fewer Conditions

10-Day Weather Forecast

Almanac

Astronomy

Oct. 01, 2014 Rise Set
Actual Time 6:57 AM MDT 6:38 PM MDT
Civil Twilight 6:27 AM MDT 7:08 PM MDT
Nautical Twilight 5:51 AM MDT 7:44 PM MDT
Astronomical Twilight 5:15 AM MDT 8:19 PM MDT
Moon 2:17 PM MDT 11:57 PM MDT
Length of Visible Light 12h 41m
Length of Day
11h 40m
Tomorrow will be 3m 21s shorter.
Waxing Crescent, 50% of the Moon is Illuminated
Today
Waxing Crescent
Oct 8
Full
Oct 15
Last Quarter
Oct 23
New
Oct 30
First Quarter

Today's Extremes

State Highs State Lows

Community

WunderPhotos

Upload Photos

1,758,013 photos uploaded!

WunderBlogs® & News

By Dr. Jeff Masters
Director of Meteorology, Weather Underground
By Kari Strenfel
Meteorologist, Weather Underground
By Christopher C. Burt
Weather Historian, Weather Underground
October 1, 2014
October 1, 2014
October 1, 2014

Nearby

Snow Depth

Station Depth Elevation
Deadman Creek 0 in 6450 ft
Many Glacier 0 in 4900 ft
Lubrecht Flume 0 in 4680 ft
Tepee Creek 0 in 8000 ft
Brackett Creek 1 in 7320 ft

Earthquake Activity

City Distance Mag. Time & Date
No recent earthquake activity has been reported nearby.
Minimum magnitude displayed is 2.5.

Coastal Water Temperatures

Place Temperature
No Stations Reporting

Nearby Weather Stations